Time;durP1;ratioP1;P1;durP2;ratioP2;P2;SDS_P1;SDS_P2;PMS_P1;PMS_P2;Temp;Humidity;BMP_temperature;BMP_pressure;BME280_temperature;BME280_humidity;BME280_pressure;Samples;Min_cycle;Max_cycle;Signal;HPM_P1;HPM_P2
2023/12/16 00:00:35;;;;;;;7.07;4.65;;;;;;;24.55;34.29;101710.09;4993286;28;20436;-43
2023/12/16 00:03:01;;;;;;;7.22;4.75;;;;;;;24.55;34.46;101710.09;4987943;28;20036;-43
2023/12/16 00:05:26;;;;;;;6.57;4.40;;;;;;;24.54;34.23;101711.31;4988446;28;20041;-44
2023/12/16 00:07:51;;;;;;;7.32;4.40;;;;;;;24.54;34.32;101739.69;4992643;28;20477;-47
2023/12/16 00:10:17;;;;;;;6.88;4.53;;;;;;;24.53;34.46;101751.16;4988707;28;20026;-44
2023/12/16 00:12:42;;;;;;;6.47;4.20;;;;;;;24.54;34.33;101761.00;4988190;28;20025;-44
2023/12/16 00:15:11;;;;;;;7.18;4.35;;;;;;;24.54;34.49;101761.78;4985310;28;20025;-43
2023/12/16 00:17:36;;;;;;;6.50;4.13;;;;;;;24.53;34.56;101776.03;4987830;28;20027;-44
2023/12/16 00:20:02;;;;;;;6.53;4.00;;;;;;;24.49;34.61;101778.88;4995043;28;20057;-43
2023/12/16 00:22:28;;;;;;;6.75;4.28;;;;;;;24.50;34.59;101783.19;4996526;28;20084;-43
2023/12/16 00:24:54;;;;;;;7.07;4.30;;;;;;;24.51;34.33;101792.25;4991835;28;20109;-43
2023/12/16 00:27:19;;;;;;;6.47;4.03;;;;;;;24.51;34.39;101798.53;4985517;28;20065;-45
2023/12/16 00:29:44;;;;;;;6.40;4.18;;;;;;;24.52;34.53;101794.56;4987886;28;20038;-45
2023/12/16 00:32:10;;;;;;;5.88;3.80;;;;;;;24.52;34.46;101788.28;4994064;28;20535;-46
2023/12/16 00:34:35;;;;;;;6.07;3.92;;;;;;;24.51;34.40;101795.00;4989961;28;20093;-44
2023/12/16 00:37:05;;;;;;;6.60;4.13;;;;;;;24.51;34.42;101800.53;4990501;28;20022;-44
2023/12/16 00:39:31;;;;;;;6.30;4.00;;;;;;;24.50;34.47;101791.47;4986394;28;20417;-43
2023/12/16 00:41:56;;;;;;;6.15;3.72;;;;;;;24.52;34.37;101800.09;4986641;28;20402;-43
2023/12/16 00:44:21;;;;;;;6.25;3.92;;;;;;;24.52;34.41;101788.28;4987908;28;20045;-45
2023/12/16 00:46:47;;;;;;;6.15;3.72;;;;;;;24.51;34.40;101792.25;4996850;28;20022;-45
2023/12/16 00:49:12;;;;;;;6.57;4.00;;;;;;;24.52;34.43;101789.06;4992747;28;20034;-42
2023/12/16 00:51:37;;;;;;;6.03;3.47;;;;;;;24.53;34.22;101781.53;4988473;28;20040;-45
2023/12/16 00:54:03;;;;;;;6.32;3.88;;;;;;;24.51;34.37;101781.19;4985997;28;20030;-43
2023/12/16 00:56:28;;;;;;;5.90;3.45;;;;;;;24.51;34.53;101776.44;4986409;28;20037;-44
2023/12/16 00:58:54;;;;;;;6.28;3.88;;;;;;;24.52;34.41;101766.19;4992177;28;20030;-45
2023/12/16 01:01:19;;;;;;;6.05;3.60;;;;;;;24.51;34.47;101764.63;4993853;28;20033;-42
2023/12/16 01:03:45;;;;;;;5.88;3.50;;;;;;;24.52;34.33;101772.47;4990508;28;20473;-43
2023/12/16 01:06:10;;;;;;;5.60;3.20;;;;;;;24.49;34.66;101772.59;4982301;28;20403;-45
2023/12/16 01:08:36;;;;;;;5.60;3.40;;;;;;;24.51;34.53;101764.63;4987311;28;20145;-46
2023/12/16 01:11:01;;;;;;;5.65;3.20;;;;;;;24.51;34.41;101748.84;4986554;28;20030;-44
2023/12/16 01:13:27;;;;;;;6.07;3.40;;;;;;;24.50;34.46;101752.81;4993373;28;20019;-44
2023/12/16 01:15:52;;;;;;;5.88;3.40;;;;;;;24.51;34.38;101759.13;4989061;28;20435;-46
2023/12/16 01:18:17;;;;;;;5.57;3.38;;;;;;;24.50;34.53;101758.34;4986538;28;20026;-43
2023/12/16 01:20:43;;;;;;;5.22;2.78;;;;;;;24.51;34.49;101764.63;4991706;28;20026;-45
2023/12/16 01:23:08;;;;;;;5.45;3.00;;;;;;;24.51;34.40;101770.94;4992431;28;20040;-43
2023/12/16 01:25:33;;;;;;;6.40;3.42;;;;;;;24.52;34.47;101766.97;4988711;28;20038;-43
2023/12/16 01:27:59;;;;;;;5.72;3.20;;;;;;;24.53;34.38;101774.03;4993192;28;20031;-43
2023/12/16 01:30:24;;;;;;;6.13;3.30;;;;;;;24.54;34.29;101772.03;4983976;28;20030;-45
2023/12/16 01:32:51;;;;;;;5.40;3.20;;;;;;;24.52;34.40;101780.00;4989932;28;20160;-43
2023/12/16 01:35:16;;;;;;;5.20;3.00;;;;;;;24.52;34.36;101780.00;4993033;28;20022;-44
2023/12/16 01:37:42;;;;;;;5.30;3.03;;;;;;;24.52;34.40;101782.75;4993646;28;20028;-44
2023/12/16 01:40:07;;;;;;;5.38;2.97;;;;;;;24.50;34.51;101785.19;4990063;28;20026;-43
2023/12/16 01:42:33;;;;;;;5.13;2.88;;;;;;;24.50;34.44;101797.00;4990818;28;20497;-44
2023/12/16 01:44:58;;;;;;;5.22;2.97;;;;;;;24.52;34.44;101791.03;4992053;28;20057;-44
2023/12/16 01:47:24;;;;;;;4.95;2.60;;;;;;;24.50;34.36;101793.47;4993849;28;20026;-44
2023/12/16 01:49:49;;;;;;;5.30;2.88;;;;;;;24.50;34.38;101790.69;4992173;28;20117;-44
2023/12/16 01:52:15;;;;;;;4.90;2.60;;;;;;;24.50;34.34;101791.47;4986349;28;20121;-44
2023/12/16 01:54:40;;;;;;;5.05;2.90;;;;;;;24.49;34.36;101789.91;4985834;28;20018;-43
2023/12/16 01:57:06;;;;;;;5.25;2.83;;;;;;;24.47;34.54;101789.59;4993778;28;20413;-43
2023/12/16 01:59:31;;;;;;;5.10;2.70;;;;;;;24.47;34.44;101795.09;4992626;28;20034;-44
2023/12/16 02:01:56;;;;;;;4.97;2.70;;;;;;;24.47;34.51;101797.09;4989523;28;20038;-44
2023/12/16 02:04:22;;;;;;;5.07;2.80;;;;;;;24.46;34.44;101804.59;4986184;28;20510;-46
2023/12/16 02:06:47;;;;;;;4.75;2.65;;;;;;;24.45;34.45;101792.00;4984762;28;20025;-45
2023/12/16 02:09:17;;;;;;;5.68;2.55;;;;;;;24.46;34.51;101792.78;4987986;28;20026;-43
2023/12/16 02:11:42;;;;;;;4.63;2.40;;;;;;;24.46;34.62;101790.78;4990692;28;20038;-43
2023/12/16 02:14:08;;;;;;;4.90;2.50;;;;;;;24.44;34.55;101793.22;4992155;28;20026;-44
2023/12/16 02:16:33;;;;;;;4.57;2.45;;;;;;;24.45;34.45;101788.47;4990512;28;20019;-43
2023/12/16 02:18:58;;;;;;;4.45;2.20;;;;;;;24.46;34.50;101790.03;4991921;28;20036;-44
2023/12/16 02:21:24;;;;;;;5.00;2.50;;;;;;;24.46;34.55;101782.50;4983529;28;20384;-43
2023/12/16 02:23:49;;;;;;;4.55;2.35;;;;;;;24.48;34.61;101784.84;4989067;28;20026;-45
2023/12/16 02:26:14;;;;;;;4.55;2.40;;;;;;;24.47;34.31;101772.25;4996970;28;20038;-47
2023/12/16 02:28:40;;;;;;;4.78;2.47;;;;;;;24.47;34.41;101775.00;4992309;28;20490;-44
2023/12/16 02:31:05;;;;;;;4.55;2.22;;;;;;;24.48;34.36;101779.31;4989086;28;20030;-46
2023/12/16 02:33:30;;;;;;;4.50;2.25;;;;;;;24.46;34.46;101778.97;4985162;28;20026;-43
2023/12/16 02:35:56;;;;;;;5.38;2.50;;;;;;;24.46;34.33;101785.28;4988898;28;20030;-43
2023/12/16 02:38:21;;;;;;;4.95;2.40;;;;;;;24.47;34.36;101791.56;4987910;28;20026;-46
2023/12/16 02:40:48;;;;;;;4.47;2.33;;;;;;;24.48;34.37;101798.63;4984523;28;20900;-45
2023/12/16 02:43:13;;;;;;;4.30;2.17;;;;;;;24.48;34.47;101799.41;4988956;28;20489;-45
2023/12/16 02:45:38;;;;;;;5.00;2.45;;;;;;;24.47;34.36;101792.34;4973117;28;20037;-44
2023/12/16 02:48:04;;;;;;;4.90;2.40;;;;;;;24.44;34.42;101795.19;4986871;28;20371;-43
2023/12/16 02:50:30;;;;;;;5.13;2.40;;;;;;;24.45;34.45;101797.53;4989118;28;20029;-46
2023/12/16 02:52:55;;;;;;;4.43;2.10;;;;;;;24.46;34.63;101792.78;4991480;28;20030;-45
2023/12/16 02:55:20;;;;;;;4.43;2.30;;;;;;;24.43;34.52;101801.94;4988426;28;20030;-42
2023/12/16 02:57:46;;;;;;;4.80;2.42;;;;;;;24.44;34.50;101797.97;4988468;28;20137;-47
2023/12/16 03:00:12;;;;;;;4.53;2.17;;;;;;;24.43;34.50;101801.94;4987528;28;20442;-46
2023/12/16 03:02:37;;;;;;;3.97;1.90;;;;;;;24.42;34.38;101800.38;4990028;28;20026;-45
2023/12/16 03:05:03;;;;;;;4.50;2.20;;;;;;;24.43;34.59;101810.22;4992877;28;20463;-45
2023/12/16 03:07:28;;;;;;;4.13;1.95;;;;;;;24.44;34.39;101809.00;4988609;28;20030;-42
2023/12/16 03:09:54;;;;;;;4.15;1.92;;;;;;;24.44;34.45;101809.78;4990920;28;20033;-44
2023/12/16 03:12:19;;;;;;;4.07;1.98;;;;;;;24.44;34.36;101812.53;4986747;28;20023;-44
2023/12/16 03:14:44;;;;;;;4.07;2.03;;;;;;;24.44;34.39;101820.03;4982062;28;20031;-44
2023/12/16 03:17:10;;;;;;;4.28;2.20;;;;;;;24.44;34.63;101823.59;4997184;28;20040;-43
2023/12/16 03:19:35;;;;;;;4.30;2.00;;;;;;;24.46;34.52;101823.16;4993356;28;20479;-44
2023/12/16 03:22:00;;;;;;;3.80;2.03;;;;;;;24.44;34.49;101820.81;4988208;28;20076;-45
2023/12/16 03:24:26;;;;;;;3.88;2.03;;;;;;;24.46;34.44;101823.16;4984892;28;20018;-45
2023/12/16 03:26:51;;;;;;;4.22;1.92;;;;;;;24.47;34.49;101830.22;4988938;28;20037;-44
2023/12/16 03:29:16;;;;;;;4.00;2.00;;;;;;;24.47;34.58;101828.22;4995004;28;20556;-44
2023/12/16 03:31:42;;;;;;;4.00;1.90;;;;;;;24.46;34.49;101823.91;4991623;28;20027;-50
2023/12/16 03:34:07;;;;;;;3.88;1.77;;;;;;;24.46;34.41;101828.66;4992315;28;20068;-48
2023/12/16 03:36:32;;;;;;;3.90;1.80;;;;;;;24.45;34.37;101836.16;4986570;28;20026;-45
2023/12/16 03:38:58;;;;;;;4.35;2.10;;;;;;;24.48;34.48;101831.75;4988971;28;20072;-46
2023/12/16 03:41:23;;;;;;;3.85;1.88;;;;;;;24.46;34.35;101839.72;4994748;28;20037;-48
2023/12/16 03:43:50;;;;;;;3.78;1.77;;;;;;;24.47;34.41;101846.78;4992468;28;20726;-46
2023/12/16 03:46:15;;;;;;;4.30;1.90;;;;;;;24.49;34.32;101847.13;4986697;28;20068;-45
2023/12/16 03:48:40;;;;;;;3.95;1.70;;;;;;;24.50;34.41;101845.91;4984776;28;20788;-46
2023/12/16 03:51:06;;;;;;;3.95;1.77;;;;;;;24.50;34.37;101846.69;4982492;28;20032;-48
2023/12/16 03:53:31;;;;;;;3.95;1.80;;;;;;;24.52;34.27;101843.50;4992183;28;20025;-48
2023/12/16 03:55:56;;;;;;;4.03;1.90;;;;;;;24.50;34.20;101841.16;4993873;28;20022;-46
2023/12/16 03:58:22;;;;;;;4.25;1.88;;;;;;;24.52;34.45;101844.25;4990134;28;20478;-46
2023/12/16 04:00:47;;;;;;;4.32;1.90;;;;;;;24.51;34.47;101839.94;4986565;28;20052;-43
2023/12/16 04:03:13;;;;;;;3.90;1.70;;;;;;;24.53;34.28;101845.03;4989569;28;20030;-48
2023/12/16 04:05:38;;;;;;;3.90;1.77;;;;;;;24.53;34.43;101843.06;4989686;28;20033;-46
2023/12/16 04:08:03;;;;;;;3.92;2.00;;;;;;;24.55;34.52;101842.63;4991153;28;20619;-45
2023/12/16 04:10:29;;;;;;;3.72;1.85;;;;;;;24.53;34.48;101845.03;4991453;28;20022;-42
2023/12/16 04:12:54;;;;;;;3.85;1.88;;;;;;;24.53;34.50;101837.53;4987966;28;20033;-42
2023/12/16 04:15:20;;;;;;;4.13;1.90;;;;;;;24.53;34.55;101829.25;4990721;28;20018;-44
2023/12/16 04:17:45;;;;;;;4.07;1.80;;;;;;;24.55;34.54;101837.09;4992666;28;20485;-43
2023/12/16 04:20:10;;;;;;;3.60;1.60;;;;;;;24.55;34.57;101839.84;4993235;28;20381;-45
2023/12/16 04:22:37;;;;;;;3.67;1.70;;;;;;;24.56;34.60;101844.16;4997372;28;20068;-44
2023/12/16 04:25:09;;;;;;;3.63;1.60;;;;;;;24.53;34.49;101839.50;4983281;28;20130;-46
2023/12/16 04:27:34;;;;;;;3.33;1.60;;;;;;;24.52;34.43;101832.44;4989155;28;20033;-44
2023/12/16 04:30:00;;;;;;;3.55;1.63;;;;;;;24.54;34.39;101830.03;4993701;28;20394;-43
2023/12/16 04:32:25;;;;;;;4.00;1.75;;;;;;;24.53;34.73;101828.47;4995866;28;20038;-45
2023/12/16 04:34:50;;;;;;;3.28;1.60;;;;;;;24.56;34.59;101838.66;4991623;28;20639;-43
2023/12/16 04:37:16;;;;;;;3.53;1.70;;;;;;;24.55;34.57;101834.34;4989157;28;20026;-45
2023/12/16 04:39:41;;;;;;;3.70;1.60;;;;;;;24.57;34.58;101831.91;4987917;28;20030;-43
2023/12/16 04:42:09;;;;;;;3.40;1.73;;;;;;;24.59;34.51;101829.47;4995352;28;20092;-45
2023/12/16 04:44:35;;;;;;;3.80;1.70;;;;;;;24.63;34.32;101827.38;4994985;28;20021;-46
2023/12/16 04:47:01;;;;;;;3.80;1.70;;;;;;;24.62;34.48;101836.88;4994551;28;20034;-43
2023/12/16 04:49:26;;;;;;;3.15;1.55;;;;;;;24.63;34.58;101841.94;4988905;28;20033;-45
2023/12/16 04:51:51;;;;;;;4.10;1.60;;;;;;;24.64;34.44;101839.97;4985007;28;20027;-44
2023/12/16 04:54:17;;;;;;;3.60;1.50;;;;;;;24.64;34.44;101837.22;4997214;28;20377;-45
2023/12/16 04:56:42;;;;;;;3.20;1.50;;;;;;;24.63;34.29;101841.94;4989798;28;20038;-44
2023/12/16 04:59:08;;;;;;;3.45;1.63;;;;;;;24.63;34.53;101836.44;4991819;28;20283;-42
2023/12/16 05:01:33;;;;;;;3.55;1.60;;;;;;;24.67;34.43;101839.09;4982453;28;20036;-43
2023/12/16 05:03:58;;;;;;;3.30;1.50;;;;;;;24.70;34.36;101832.69;4981468;28;20026;-44
2023/12/16 05:06:24;;;;;;;3.50;1.67;;;;;;;24.69;34.15;101831.16;4988265;28;20038;-43
2023/12/16 05:08:49;;;;;;;3.30;1.50;;;;;;;24.68;34.38;101835.91;4994152;28;20029;-43
2023/12/16 05:11:14;;;;;;;3.47;1.60;;;;;;;24.65;34.44;101833.22;4992177;28;20045;-43
2023/12/16 05:13:40;;;;;;;3.35;1.48;;;;;;;24.66;34.38;101826.50;4985579;28;20019;-44
2023/12/16 05:16:05;;;;;;;3.50;1.60;;;;;;;24.68;34.56;101835.13;4980634;28;20040;-43
2023/12/16 05:18:31;;;;;;;2.92;1.38;;;;;;;24.68;34.50;101837.88;4991191;28;20363;-44
2023/12/16 05:20:56;;;;;;;3.40;1.48;;;;;;;24.73;34.43;101840.88;4987689;28;20026;-43
2023/12/16 05:23:21;;;;;;;3.55;1.50;;;;;;;24.71;34.37;101835.03;4993762;28;20033;-45
2023/12/16 05:25:47;;;;;;;3.05;1.45;;;;;;;24.72;34.90;101835.78;4990486;28;20501;-43
2023/12/16 05:28:12;;;;;;;2.47;1.30;;;;;;;24.73;34.86;101831.81;4984806;28;20022;-45
2023/12/16 05:30:37;;;;;;;3.47;1.50;;;;;;;24.69;34.42;101831.16;4992869;28;20088;-44
2023/12/16 05:33:03;;;;;;;3.53;1.60;;;;;;;24.67;34.52;101839.09;4995384;28;20036;-46
2023/12/16 05:35:28;;;;;;;3.65;1.50;;;;;;;24.63;34.90;101833.66;5006294;28;20018;-44
2023/12/16 05:37:54;;;;;;;3.40;1.50;;;;;;;24.64;34.68;101837.97;4989419;28;20025;-44
2023/12/16 05:40:19;;;;;;;3.33;1.50;;;;;;;24.62;34.61;101832.13;4983607;28;20171;-43
2023/12/16 05:42:44;;;;;;;3.47;1.55;;;;;;;24.65;34.47;101830.47;4988660;28;20033;-46
2023/12/16 05:45:10;;;;;;;3.13;1.60;;;;;;;24.62;34.64;101831.34;4992919;28;20018;-47
2023/12/16 05:47:35;;;;;;;3.28;1.50;;;;;;;24.63;34.61;101836.44;4996684;28;20026;-44
2023/12/16 05:50:02;;;;;;;3.35;1.50;;;;;;;24.61;34.54;101829.78;4995038;28;20470;-42
2023/12/16 05:52:27;;;;;;;5.82;1.55;;;;;;;24.65;34.57;101836.78;4986472;28;20050;-45
2023/12/16 05:54:53;;;;;;;3.25;1.48;;;;;;;24.67;34.56;101836.34;4985438;28;20044;-43
2023/12/16 05:57:18;;;;;;;4.18;1.52;;;;;;;24.66;34.62;101834.78;4984602;28;20023;-45
2023/12/16 05:59:43;;;;;;;4.03;1.60;;;;;;;24.70;34.70;101832.69;4992592;28;20632;-45
2023/12/16 06:02:09;;;;;;;5.15;1.70;;;;;;;24.69;34.56;101842.19;4987685;28;20077;-44
2023/12/16 06:04:34;;;;;;;4.93;1.58;;;;;;;24.67;34.68;101839.09;4982587;28;20029;-44
2023/12/16 06:06:59;;;;;;;4.65;1.52;;;;;;;24.67;34.79;101844.63;4985339;28;20037;-47
2023/12/16 06:09:25;;;;;;;3.58;1.55;;;;;;;24.67;34.65;101847.38;4990880;28;20041;-44
2023/12/16 06:11:50;;;;;;;5.18;1.65;;;;;;;24.67;34.63;101853.69;4989199;28;20026;-44
2023/12/16 06:14:16;;;;;;;3.92;1.60;;;;;;;24.67;34.72;101847.38;4990661;28;20450;-44
2023/12/16 06:16:41;;;;;;;3.75;1.75;;;;;;;24.67;34.71;101847.38;4983533;28;20117;-44
2023/12/16 06:19:06;;;;;;;4.30;1.70;;;;;;;24.65;34.62;101850.56;4982969;28;20031;-46
2023/12/16 06:21:32;;;;;;;4.20;1.80;;;;;;;24.63;34.76;101846.69;4986376;28;20026;-44
2023/12/16 06:24:00;;;;;;;5.38;1.80;;;;;;;24.63;34.52;101843.94;4985818;28;20015;-43
2023/12/16 06:26:25;;;;;;;4.47;1.60;;;;;;;24.63;34.73;101841.19;4993744;28;20091;-45
2023/12/16 06:28:51;;;;;;;4.03;1.58;;;;;;;24.63;34.73;101843.94;4987232;28;20478;-46
2023/12/16 06:31:16;;;;;;;4.70;1.60;;;;;;;24.63;34.68;101850.25;4984911;28;20044;-47
2023/12/16 06:33:42;;;;;;;3.42;1.63;;;;;;;24.65;34.54;101852.56;4989309;28;20026;-44
2023/12/16 06:36:07;;;;;;;4.15;1.73;;;;;;;24.63;34.62;101853.00;4989454;28;20025;-46
2023/12/16 06:38:32;;;;;;;4.00;1.58;;;;;;;24.63;34.56;101855.75;4994750;28;20030;-47
2023/12/16 06:40:58;;;;;;;4.30;1.73;;;;;;;24.64;34.69;101851.78;4984591;28;20029;-43
2023/12/16 06:43:24;;;;;;;4.22;1.70;;;;;;;24.65;34.70;101852.56;4986661;28;20058;-46
2023/12/16 06:45:49;;;;;;;3.95;1.50;;;;;;;24.66;34.47;101865.16;4991604;28;20034;-44
2023/12/16 06:48:14;;;;;;;4.15;1.90;;;;;;;24.64;34.49;101864.81;4994591;28;20474;-44
2023/12/16 06:50:40;;;;;;;4.43;1.80;;;;;;;24.63;34.62;101863.28;4992381;28;20022;-44
2023/12/16 06:53:06;;;;;;;3.70;1.70;;;;;;;24.61;34.51;101862.94;4989378;28;20030;-46
2023/12/16 06:55:32;;;;;;;3.85;1.60;;;;;;;24.64;34.71;101859.28;4985918;28;20042;-45
2023/12/16 06:57:57;;;;;;;4.50;1.60;;;;;;;24.65;34.78;101856.09;4991612;28;20030;-49
2023/12/16 07:00:22;;;;;;;4.13;1.70;;;;;;;24.63;35.03;101866.03;4998327;28;20068;-52
2023/12/16 07:02:48;;;;;;;5.20;1.70;;;;;;;24.65;35.24;101869.91;4999972;28;20057;-47
2023/12/16 07:05:13;;;;;;;9.02;1.90;;;;;;;24.69;34.99;101865.06;4993691;28;20027;-46
2023/12/16 07:07:38;;;;;;;4.90;1.70;;;;;;;24.65;34.86;101863.63;4989063;28;20634;-49
2023/12/16 07:10:06;;;;;;;4.38;1.70;;;;;;;24.81;34.79;101868.28;4988914;28;20038;-44
2023/12/16 07:12:31;;;;;;;6.32;1.98;;;;;;;24.73;34.83;101862.19;4995600;28;20116;-48
2023/12/16 07:14:57;;;;;;;4.78;1.70;;;;;;;24.70;34.79;101863.84;4997918;28;20043;-49
2023/12/16 07:17:23;;;;;;;5.63;1.60;;;;;;;24.70;34.92;101872.13;4993334;28;20561;-50
2023/12/16 07:19:48;;;;;;;4.35;1.65;;;;;;;24.69;35.02;101878.09;4987904;28;20079;-46
2023/12/16 07:22:16;;;;;;;4.88;1.80;;;;;;;24.72;34.86;101871.69;4988871;28;20433;-46
2023/12/16 07:24:42;;;;;;;4.30;1.73;;;;;;;24.73;34.79;101887.84;4995723;28;20014;-44
2023/12/16 07:27:08;;;;;;;5.20;1.83;;;;;;;24.74;35.09;101883.09;4985216;28;20048;-46
2023/12/16 07:29:36;;;;;;;5.53;1.85;;;;;;;24.75;35.10;101878.34;4984632;28;20027;-45
2023/12/16 07:32:03;;;;;;;5.60;2.00;;;;;;;24.79;34.98;101888.03;4983226;28;20029;-54
2023/12/16 07:34:28;;;;;;;4.82;1.80;;;;;;;24.75;34.94;101886.63;4993118;28;20021;-45
2023/12/16 07:36:53;;;;;;;4.95;1.70;;;;;;;24.74;35.14;101883.09;4995537;28;20022;-45
2023/12/16 07:39:19;;;;;;;4.28;1.70;;;;;;;24.79;35.01;101885.28;4990798;28;20026;-47
2023/12/16 07:41:44;;;;;;;4.35;2.00;;;;;;;24.76;34.75;101886.19;4987092;28;20048;-49
2023/12/16 07:44:11;;;;;;;4.80;1.83;;;;;;;24.80;34.86;101889.59;4984620;28;20381;-48
2023/12/16 07:46:37;;;;;;;3.70;1.60;;;;;;;24.83;34.99;101893.47;4989306;28;20033;-51
2023/12/16 07:49:02;;;;;;;5.55;2.20;;;;;;;24.73;35.01;101885.06;4992795;28;20029;-48
2023/12/16 07:51:28;;;;;;;10.65;2.55;;;;;;;24.91;35.27;101898.38;4993446;28;20469;-51
2023/12/16 07:53:53;;;;;;;11.65;2.33;;;;;;;24.86;34.96;101895.34;4989437;28;20076;-47
2023/12/16 07:56:20;;;;;;;18.15;2.15;;;;;;;24.78;34.49;101897.53;4987320;28;20381;-47
2023/12/16 07:58:46;;;;;;;9.60;2.10;;;;;;;24.81;34.33;101896.66;4987942;28;20109;-48
2023/12/16 08:01:14;;;;;;;5.80;2.15;;;;;;;24.79;34.24;101901.84;4990669;28;20030;-47
2023/12/16 08:03:40;;;;;;;5.75;1.90;;;;;;;24.75;34.43;101906.72;4992785;28;20018;-49
2023/12/16 08:06:06;;;;;;;5.30;2.00;;;;;;;24.72;34.29;101896.56;4994230;28;20548;-47
2023/12/16 08:08:31;;;;;;;6.78;2.33;;;;;;;24.68;34.52;101901.41;4985704;28;20106;-50
2023/12/16 08:10:56;;;;;;;4.85;2.28;;;;;;;24.66;34.40;101912.88;4984711;28;20338;-46
2023/12/16 08:13:22;;;;;;;4.50;2.13;;;;;;;24.65;34.38;101903.03;4992735;28;20032;-46
2023/12/16 08:15:47;;;;;;;4.38;1.90;;;;;;;24.64;34.53;101917.28;4997154;28;20393;-52
2023/12/16 08:18:13;;;;;;;5.13;2.10;;;;;;;24.63;34.57;101913.75;4991454;28;20085;-46
2023/12/16 08:20:38;;;;;;;5.38;2.15;;;;;;;24.62;34.45;101919.72;4993719;28;20014;-50
2023/12/16 08:23:05;;;;;;;8.05;2.17;;;;;;;24.59;34.43;101926.09;4989102;28;20023;-48
2023/12/16 08:25:31;;;;;;;4.07;2.13;;;;;;;24.58;34.54;101921.81;4991022;28;20105;-47
2023/12/16 08:27:56;;;;;;;4.60;2.22;;;;;;;24.56;34.46;101921.47;4993142;28;20049;-47
2023/12/16 08:30:21;;;;;;;4.60;2.10;;;;;;;24.57;34.59;101937.59;4994765;28;20026;-51
2023/12/16 08:32:47;;;;;;;4.50;2.20;;;;;;;24.59;34.50;101939.91;4987509;28;20026;-47
2023/12/16 08:35:14;;;;;;;4.97;2.20;;;;;;;24.59;34.51;101934.38;4989941;28;20026;-47
2023/12/16 08:37:40;;;;;;;4.63;2.13;;;;;;;24.59;34.56;101934.38;4995285;28;20790;-46
2023/12/16 08:40:06;;;;;;;12.40;2.53;;;;;;;24.64;35.59;101942.91;4985636;28;20518;-48
2023/12/16 08:42:31;;;;;;;8.77;2.60;;;;;;;24.63;35.49;101946.09;4991933;28;20157;-48
2023/12/16 08:44:57;;;;;;;7.57;2.45;;;;;;;24.64;35.27;101945.69;4984993;28;20385;-48
2023/12/16 08:47:22;;;;;;;8.48;2.72;;;;;;;24.64;35.21;101940.16;4987760;28;20088;-46
2023/12/16 08:49:47;;;;;;;8.15;2.22;;;;;;;24.63;35.08;101943.34;4994435;28;20027;-48
2023/12/16 08:52:13;;;;;;;7.95;2.22;;;;;;;24.62;35.01;101952.84;4986119;28;20037;-49
2023/12/16 08:54:39;;;;;;;6.35;2.22;;;;;;;24.63;35.01;101954.41;4989532;28;20422;-48
2023/12/16 08:57:04;;;;;;;4.88;2.38;;;;;;;24.66;34.83;101950.75;4984588;28;20023;-47
2023/12/16 08:59:30;;;;;;;7.53;2.60;;;;;;;24.64;34.80;101953.19;4984514;28;20026;-50
2023/12/16 09:01:55;;;;;;;5.78;2.30;;;;;;;24.64;34.93;101953.19;4991623;28;20038;-48
2023/12/16 09:04:20;;;;;;;5.85;2.35;;;;;;;24.65;34.81;101958.28;4991155;28;20023;-52
2023/12/16 09:06:46;;;;;;;5.30;2.55;;;;;;;24.63;34.49;101954.41;4990969;28;20056;-48
2023/12/16 09:09:11;;;;;;;5.05;2.50;;;;;;;24.60;34.34;101961.56;4991199;28;20036;-52
2023/12/16 09:11:37;;;;;;;5.43;2.60;;;;;;;24.61;34.59;101956.81;4990362;28;20545;-49
2023/12/16 09:14:05;;;;;;;4.40;2.30;;;;;;;24.60;34.36;101961.56;4989706;28;20025;-49
2023/12/16 09:16:30;;;;;;;6.65;2.95;;;;;;;24.61;34.29;101962.34;4990111;28;20073;-48
2023/12/16 09:18:56;;;;;;;5.97;2.75;;;;;;;24.59;34.38;101967.50;4994512;28;20553;-48
2023/12/16 09:21:22;;;;;;;4.85;2.50;;;;;;;24.59;34.55;101971.06;4986466;28;20026;-49
2023/12/16 09:23:47;;;;;;;6.93;2.92;;;;;;;24.58;34.20;101972.25;4987136;28;20026;-50
2023/12/16 09:26:13;;;;;;;5.65;2.72;;;;;;;24.57;34.61;101983.78;4991290;28;20064;-48
2023/12/16 09:28:38;;;;;;;5.55;3.03;;;;;;;24.59;34.34;101981.31;4994024;28;20027;-47
2023/12/16 09:31:04;;;;;;;4.50;2.80;;;;;;;24.58;34.43;101988.81;4993041;28;20030;-48
2023/12/16 09:33:29;;;;;;;6.68;3.47;;;;;;;24.59;34.19;101981.31;4990878;28;20030;-49
2023/12/16 09:35:55;;;;;;;9.02;5.47;;;;;;;24.58;34.31;101988.09;4988813;28;20262;-52
2023/12/16 09:38:20;;;;;;;12.63;8.18;;;;;;;24.59;34.31;101981.31;4989615;28;20027;-49
2023/12/16 09:40:45;;;;;;;20.27;13.20;;;;;;;24.60;34.23;101982.88;4991756;28;20030;-49
2023/12/16 09:43:14;;;;;;;27.20;16.85;;;;;;;24.61;34.31;101981.66;4990182;28;20019;-49
2023/12/16 09:45:39;;;;;;;36.00;24.63;;;;;;;24.60;34.34;101982.88;4989772;28;20032;-48
2023/12/16 09:48:05;;;;;;;45.88;31.15;;;;;;;24.59;34.43;101978.56;4991105;28;20444;-49
2023/12/16 09:50:30;;;;;;;57.50;39.85;;;;;;;24.61;34.42;101979.69;4989835;28;20031;-47
2023/12/16 09:52:56;;;;;;;81.95;56.13;;;;;;;24.61;34.37;101978.91;4987005;28;20746;-48
2023/12/16 09:55:22;;;;;;;70.53;49.80;;;;;;;24.59;34.29;101978.56;4986297;28;20044;-47
2023/12/16 09:57:47;;;;;;;73.20;49.05;;;;;;;24.62;34.26;101980.47;4990588;28;20037;-48
2023/12/16 10:00:13;;;;;;;75.75;50.20;;;;;;;24.59;34.27;101978.56;4985502;28;20482;-49
2023/12/16 10:02:39;;;;;;;77.22;50.38;;;;;;;24.59;34.42;101981.31;4994419;28;20102;-52
2023/12/16 10:05:04;;;;;;;71.90;49.75;;;;;;;24.61;34.37;101978.91;4988362;28;20132;-50
2023/12/16 10:07:29;;;;;;;80.22;49.90;;;;;;;24.59;34.45;101984.84;4984822;28;20030;-48
2023/12/16 10:09:55;;;;;;;69.93;47.10;;;;;;;24.57;34.44;101981.00;4992270;28;20031;-49
2023/12/16 10:12:20;;;;;;;64.25;44.70;;;;;;;24.54;34.29;101973.59;4987128;28;20034;-50
2023/12/16 10:14:46;;;;;;;65.28;45.03;;;;;;;24.50;34.44;101979.19;4985552;28;20522;-49
2023/12/16 10:17:12;;;;;;;60.78;40.65;;;;;;;24.49;34.40;101974.09;4988149;28;20041;-48
2023/12/16 10:19:37;;;;;;;62.10;40.92;;;;;;;24.53;34.60;101977.56;4993237;28;20030;-47
2023/12/16 10:22:03;;;;;;;56.40;35.72;;;;;;;24.54;34.45;101973.59;4986060;28;20026;-46
2023/12/16 10:24:28;;;;;;;47.42;34.47;;;;;;;24.53;34.41;101970.06;4983847;28;20027;-46
2023/12/16 10:26:54;;;;;;;47.83;32.90;;;;;;;24.52;34.35;101970.47;4985155;28;20034;-46
2023/12/16 10:29:20;;;;;;;46.67;29.73;;;;;;;24.52;34.39;101967.72;4977109;28;20026;-43
2023/12/16 10:31:45;;;;;;;41.95;29.10;;;;;;;24.55;34.25;101972.38;4988072;28;20030;-44
2023/12/16 10:34:11;;;;;;;38.03;25.63;;;;;;;24.58;34.28;101963.97;4993021;28;20943;-46
2023/12/16 10:36:36;;;;;;;35.22;24.45;;;;;;;24.55;34.50;101975.91;4999412;28;20021;-46
2023/12/16 10:39:02;;;;;;;32.50;21.70;;;;;;;24.52;34.34;101971.25;4985918;28;20030;-49
2023/12/16 10:41:27;;;;;;;28.98;20.42;;;;;;;24.55;34.45;101973.16;4983556;28;20096;-45
2023/12/16 10:43:53;;;;;;;26.02;17.80;;;;;;;24.56;34.24;101963.66;4989501;28;20495;-46
2023/12/16 10:46:18;;;;;;;24.13;15.93;;;;;;;24.55;34.32;101964.09;4991206;28;20087;-45
2023/12/16 10:48:50;;;;;;;21.63;14.35;;;;;;;24.61;33.98;101959.56;4992881;28;20041;-48
2023/12/16 10:51:16;;;;;;;20.33;13.55;;;;;;;24.63;34.12;101954.41;4988521;28;20923;-43
2023/12/16 10:53:44;;;;;;;17.02;11.73;;;;;;;24.65;34.03;101957.50;4984099;28;20031;-43
2023/12/16 10:56:36;;;;;;;17.55;11.63;;;;;;;24.68;33.79;101962.16;4991446;28;20532;-44
2023/12/16 10:59:05;;;;;;;17.55;12.23;;;;;;;24.69;33.90;101956.19;4990471;28;20092;-46
2023/12/16 11:01:34;;;;;;;18.90;11.45;;;;;;;24.69;33.75;101967.25;4991778;28;20056;-44
2023/12/16 11:04:09;;;;;;;16.25;11.15;;;;;;;24.69;33.91;101958.19;4979725;28;20397;-43
2023/12/16 11:07:02;;;;;;;16.27;10.25;;;;;;;24.69;33.90;101961.72;4985089;28;20501;-44
2023/12/16 11:09:27;;;;;;;16.00;9.35;;;;;;;24.69;34.01;101960.94;4989675;28;20026;-43
2023/12/16 11:11:53;;;;;;;13.75;9.23;;;;;;;24.68;34.05;101956.63;4995225;28;20084;-43
2023/12/16 11:14:19;;;;;;;14.93;9.70;;;;;;;24.68;33.95;101946.34;4987093;28;20409;-44